createdAt,value
2023-02-13T00:04:20.787Z,28.2
2023-02-13T00:09:26.305Z,28.2
2023-02-13T00:14:48.356Z,28.2
2023-02-13T00:20:25.728Z,28.1
2023-02-13T00:26:03.536Z,28.1
2023-02-13T00:31:55.318Z,28
2023-02-13T00:37:33.545Z,28
2023-02-13T00:42:54.914Z,28
2023-02-13T00:48:32.651Z,27.9
2023-02-13T00:53:55.160Z,27.9
2023-02-13T00:59:31.513Z,27.9
2023-02-13T01:04:23.672Z,27.9
2023-02-13T01:15:06.796Z,27.8
2023-02-13T01:20:43.827Z,27.8
2023-02-13T01:26:21.033Z,27.7
2023-02-13T01:31:59.286Z,27.7
2023-02-13T01:37:37.397Z,27.6
2023-02-13T01:43:15.307Z,27.6
2023-02-13T01:48:54.732Z,27.6
2023-02-13T01:54:31.544Z,27.5
2023-02-13T01:59:53.246Z,27.4
2023-02-13T02:05:31.503Z,28
2023-02-13T02:10:53.042Z,28.9
2023-02-13T02:16:29.986Z,29.7
2023-02-13T02:21:52.322Z,30.5
2023-02-13T02:27:29.429Z,31.2
2023-02-13T02:33:07.050Z,31.9
2023-02-13T02:38:43.755Z,32.5
2023-02-13T02:44:22.455Z,33.2
2023-02-13T02:50:00.458Z,33.9
2023-02-13T02:55:36.695Z,34.6
2023-02-13T03:01:14.688Z,35.3
2023-02-13T03:06:52.329Z,35.9
2023-02-13T03:12:29.997Z,36.6
2023-02-13T03:18:08.104Z,37.3
2023-02-13T03:23:44.624Z,37.8
2023-02-13T03:29:22.121Z,38.5
2023-02-13T03:35:00.174Z,38.9
2023-02-13T03:40:36.605Z,39.1
2023-02-13T03:46:14.114Z,39.2
2023-02-13T03:51:51.963Z,39.3
2023-02-13T03:57:28.834Z,39.3
2023-02-13T04:03:05.954Z,39.3
2023-02-13T04:08:43.367Z,39.3
2023-02-13T04:13:50.679Z,39.3
2023-02-13T04:19:27.916Z,39.3
2023-02-13T04:24:49.723Z,39.2
2023-02-13T04:30:27.600Z,39.2
2023-02-13T04:36:06.873Z,39.2
2023-02-13T04:41:44.269Z,39.2
2023-02-13T04:47:22.364Z,39.1
2023-02-13T04:52:59.160Z,39.1
2023-02-13T04:58:35.722Z,39.1
2023-02-13T05:03:58.077Z,39.1
2023-02-13T05:09:21.062Z,38.9
2023-02-13T05:14:59.443Z,39
2023-02-13T05:20:21.589Z,39
2023-02-13T05:25:59.307Z,38.9
2023-02-13T05:31:22.198Z,38.8
2023-02-13T05:36:45.083Z,38.8
2023-02-13T05:42:22.829Z,38.7
2023-02-13T05:48:01.451Z,38.6
2023-02-13T05:53:39.454Z,38.5
2023-02-13T05:59:17.557Z,38.4
2023-02-13T06:04:55.629Z,38.3
2023-02-13T06:10:16.891Z,38.2
2023-02-13T06:15:55.322Z,38.1
2023-02-13T06:21:33.498Z,38.1
2023-02-13T06:27:11.094Z,38.1
2023-02-13T06:32:49.339Z,37.8
2023-02-13T06:38:29.108Z,33
2023-02-13T06:43:50.569Z,30.4
2023-02-13T06:49:29.179Z,29.3
2023-02-13T06:55:03.392Z,28.7
2023-02-13T07:00:26.851Z,28.3
2023-02-13T07:06:05.703Z,27.4
2023-02-13T07:11:42.618Z,26
2023-02-13T07:17:19.254Z,25.1
2023-02-13T07:22:56.686Z,22.9
2023-02-13T07:28:18.883Z,21.4
2023-02-13T07:33:57.695Z,20.6
2023-02-13T07:39:48.354Z,20
2023-02-13T07:44:56.140Z,19.5
2023-02-13T07:50:33.957Z,19.2
2023-02-13T07:55:40.154Z,18.9
2023-02-13T08:01:03.800Z,18.8
2023-02-13T08:06:10.412Z,18.6
2023-02-13T08:11:47.873Z,18.4
2023-02-13T08:17:26.202Z,18.3
2023-02-13T08:23:04.956Z,18.2
2023-02-13T08:28:43.523Z,18.1
2023-02-13T08:34:00.285Z,18
2023-02-13T08:39:37.801Z,17.9
2023-02-13T08:45:16.334Z,17.9
2023-02-13T08:50:55.179Z,17.8
2023-02-13T08:56:17.636Z,17.8
2023-02-13T09:01:40.145Z,17.8
2023-02-13T09:07:18.559Z,17.6
2023-02-13T09:12:55.608Z,17.7
2023-02-13T09:18:34.055Z,17.6
2023-02-13T09:24:12.041Z,17.6
2023-02-13T09:29:34.222Z,17.6
2023-02-13T09:35:13.249Z,17.6
2023-02-13T09:40:19.801Z,17.5
2023-02-13T09:45:57.784Z,17.5
2023-02-13T09:51:35.379Z,17.4
2023-02-13T09:57:00.267Z,17.4
2023-02-13T10:02:38.241Z,17.4
2023-02-13T10:08:15.881Z,26.3
2023-02-13T10:13:39.089Z,23.1
2023-02-13T10:19:05.399Z,21.2
2023-02-13T10:24:42.270Z,31.6
2023-02-13T10:29:48.450Z,32.3
2023-02-13T10:35:27.975Z,34.4
2023-02-13T10:41:05.978Z,36.3
2023-02-13T10:46:44.310Z,37.9
2023-02-13T10:52:22.917Z,39.6
2023-02-13T11:03:53.125Z,42.7
2023-02-13T11:09:14.541Z,42.3
2023-02-13T11:14:51.915Z,43.6
2023-02-13T11:20:31.501Z,44.9
2023-02-13T11:26:08.080Z,46.3
2023-02-13T11:31:14.471Z,47.3
2023-02-13T11:36:52.560Z,48.4
2023-02-13T11:42:29.610Z,49.1
2023-02-13T11:48:07.887Z,49.9
2023-02-13T11:53:44.442Z,50.5
2023-02-13T11:59:20.295Z,51.1
2023-02-13T12:04:27.463Z,51.6
2023-02-13T12:09:49.560Z,51.9
2023-02-13T12:15:26.269Z,52.3
2023-02-13T12:20:56.493Z,52.6
2023-02-13T12:26:19.441Z,52.8
2023-02-13T12:31:56.468Z,53.1
2023-02-13T12:37:18.800Z,53.3
2023-02-13T12:42:58.467Z,53.4
2023-02-13T12:48:35.483Z,53.6
2023-02-13T12:54:11.663Z,53.6
2023-02-13T12:59:18.256Z,53.7
2023-02-13T13:04:55.034Z,53.8
2023-02-13T13:10:43.486Z,53.8
2023-02-13T13:16:21.082Z,53.9
2023-02-13T13:21:42.045Z,53.8
2023-02-13T13:27:19.178Z,53.7
2023-02-13T13:32:42.536Z,53.6
2023-02-13T13:38:04.875Z,53.4
2023-02-13T13:43:41.772Z,53.1
2023-02-13T13:48:48.200Z,52.9
2023-02-13T13:53:54.093Z,52.7
2023-02-13T13:59:17.361Z,52.3
2023-02-13T14:10:19.551Z,51.6
2023-02-13T14:15:59.592Z,51.1
2023-02-13T14:21:22.173Z,50.7
2023-02-13T14:27:05.426Z,50.1
2023-02-13T14:32:44.611Z,49.5
2023-02-13T14:38:08.967Z,47.4
2023-02-13T14:43:31.145Z,46.1
2023-02-13T14:49:08.917Z,43.3
2023-02-13T14:54:46.101Z,40.3
2023-02-13T15:00:23.168Z,38.3
2023-02-13T15:06:01.303Z,37.1
2023-02-13T15:11:24.106Z,36.1
2023-02-13T15:17:01.677Z,35.5
2023-02-13T15:22:39.950Z,34.9
2023-02-13T15:27:47.284Z,34.5
2023-02-13T15:33:47.011Z,34.1
2023-02-13T15:39:26.425Z,33.4
2023-02-13T15:44:49.178Z,33.1
2023-02-13T15:50:27.220Z,32.8
2023-02-13T15:56:05.946Z,32.4
2023-02-13T16:01:44.601Z,32.1
2023-02-13T16:07:34.929Z,31.9
2023-02-13T16:13:12.426Z,31.7
2023-02-13T16:18:50.158Z,31.4
2023-02-13T16:24:27.144Z,31.3
2023-02-13T16:29:51.104Z,31.1
2023-02-13T16:35:29.291Z,31
2023-02-13T16:41:06.721Z,30.8
2023-02-13T16:46:12.910Z,30.8
2023-02-13T16:51:51.736Z,30.6
2023-02-13T16:57:30.380Z,30.4
2023-02-13T17:03:06.465Z,29
2023-02-13T17:08:29.329Z,29
2023-02-13T17:14:05.910Z,26.2
2023-02-13T17:19:42.429Z,24.9
2023-02-13T17:25:06.457Z,24.1
2023-02-13T17:30:46.569Z,23.6
2023-02-13T17:36:24.589Z,23.3
2023-02-13T17:42:01.648Z,22.9
2023-02-13T17:47:40.499Z,22.7
2023-02-13T17:53:29.070Z,22.4
2023-02-13T17:59:05.607Z,22.3
2023-02-13T18:04:45.165Z,22.2
2023-02-13T18:10:07.389Z,22.1
2023-02-13T18:15:30.654Z,22
2023-02-13T18:21:08.448Z,22
2023-02-13T18:26:30.058Z,21.9
2023-02-13T18:32:10.280Z,21.6
2023-02-13T18:37:32.903Z,21.4
2023-02-13T18:48:43.013Z,20.9
2023-02-13T18:54:21.547Z,20.8
2023-02-13T18:59:42.618Z,20.7
2023-02-13T19:05:20.050Z,20.6
2023-02-13T19:10:58.070Z,20.6
2023-02-13T19:16:35.447Z,20.5
2023-02-13T19:21:57.413Z,20.5
2023-02-13T19:27:19.713Z,20.5
2023-02-13T19:32:26.635Z,20.4
2023-02-13T19:38:16.094Z,20.4
2023-02-13T19:43:53.903Z,20.4
2023-02-13T19:49:00.518Z,20.4
2023-02-13T19:54:25.389Z,20.2
2023-02-13T20:00:04.089Z,20
2023-02-13T20:05:43.403Z,19.6
2023-02-13T20:11:05.658Z,19.3
2023-02-13T20:16:12.634Z,19.2
2023-02-13T20:21:35.303Z,19.6
2023-02-13T20:27:13.699Z,20.4
2023-02-13T20:32:28.234Z,22.1
2023-02-13T20:37:52.224Z,24.1
2023-02-13T20:43:16.231Z,26.1
2023-02-13T20:48:39.896Z,27.9
2023-02-13T20:53:46.862Z,29.9
2023-02-13T20:58:40.301Z,31.7
2023-02-13T21:04:02.327Z,33.2
2023-02-13T21:09:27.334Z,34.6
2023-02-13T21:15:05.308Z,35.6
2023-02-13T21:20:43.135Z,35.6
2023-02-13T21:25:49.490Z,36
2023-02-13T21:31:12.240Z,36.1
2023-02-13T21:36:49.976Z,36.1
2023-02-13T21:42:27.773Z,36.1
2023-02-13T21:48:05.711Z,36.1
2023-02-13T21:53:43.028Z,36.1
2023-02-13T21:59:07.813Z,36.1
2023-02-13T22:04:52.649Z,36.1
2023-02-13T22:10:29.166Z,36.1
2023-02-13T22:16:06.389Z,35.9
2023-02-13T22:21:44.301Z,35.8
2023-02-13T22:27:21.513Z,35.6
2023-02-13T22:33:04.308Z,35.6
2023-02-13T22:38:50.655Z,35.4
2023-02-13T22:44:26.737Z,35.4
2023-02-13T22:50:04.093Z,35.3
2023-02-13T22:55:41.516Z,35.2
2023-02-13T23:00:48.334Z,35.1
2023-02-13T23:06:11.140Z,35
2023-02-13T23:11:49.056Z,34.9
2023-02-13T23:17:12.430Z,34.8
2023-02-13T23:22:34.544Z,34.7
2023-02-13T23:27:56.196Z,34.6
2023-02-13T23:33:04.220Z,34.5
2023-02-13T23:38:26.133Z,34.4
2023-02-13T23:43:49.025Z,34.3
2023-02-13T23:48:55.918Z,34.2
2023-02-13T23:54:32.921Z,34.1
